createdAt,value
2018-04-20T00:00:31.568Z,94.84
2018-04-20T00:01:31.629Z,94.07
2018-04-20T00:02:31.689Z,94.07
2018-04-20T00:03:31.751Z,94.22
2018-04-20T00:04:31.810Z,93.98
2018-04-20T00:05:31.871Z,94.31
2018-04-20T00:06:31.932Z,91.26
2018-04-20T00:07:31.993Z,90.78
2018-04-20T00:08:32.053Z,91.45
2018-04-20T00:09:32.112Z,91.36
2018-04-20T00:10:32.174Z,91.55
2018-04-20T00:11:32.235Z,91.45
2018-04-20T00:12:32.295Z,91.36
2018-04-20T00:13:32.357Z,91.16
2018-04-20T00:14:32.417Z,92.21
2018-04-20T00:15:32.477Z,91.83
2018-04-20T00:16:32.540Z,92.97
2018-04-20T00:17:32.599Z,92.88
2018-04-20T00:18:32.659Z,92.02
2018-04-20T00:19:32.718Z,92.12
2018-04-20T00:20:32.779Z,91.64
2018-04-20T00:21:32.838Z,90.88
2018-04-20T00:22:32.898Z,91.36
2018-04-20T00:23:32.961Z,91.64
2018-04-20T00:24:33.020Z,91.26
2018-04-20T00:25:33.080Z,92.21
2018-04-20T00:26:33.145Z,92.21
2018-04-20T00:27:33.201Z,91.60
2018-04-20T00:28:33.262Z,91.78
2018-04-20T00:29:33.322Z,91.60
2018-04-20T00:30:33.583Z,92.12
2018-04-20T00:31:33.458Z,91.78
2018-04-20T00:32:33.503Z,91.83
2018-04-20T00:33:33.563Z,91.41
2018-04-20T00:34:33.624Z,92.07
2018-04-20T00:35:33.684Z,91.88
2018-04-20T00:36:33.744Z,91.69
2018-04-20T00:37:33.807Z,91.98
2018-04-20T00:38:33.866Z,92.83
2018-04-20T00:39:33.926Z,92.07
2018-04-20T00:40:33.985Z,93.31
2018-04-20T00:41:34.045Z,93.79
2018-04-20T00:42:34.107Z,93.60
2018-04-20T00:43:34.171Z,93.46
2018-04-20T00:44:34.227Z,93.36
2018-04-20T00:45:34.287Z,93.79
2018-04-20T00:46:34.346Z,94.07
2018-04-20T00:47:34.407Z,94.36
2018-04-20T00:48:34.717Z,94.32
2018-04-20T00:49:34.527Z,94.79
2018-04-20T00:50:34.588Z,94.32
2018-04-20T00:51:34.647Z,94.41
2018-04-20T00:52:34.709Z,94.32
2018-04-20T00:53:34.768Z,93.55
2018-04-20T00:54:34.829Z,94.46
2018-04-20T00:55:34.889Z,94.22
2018-04-20T00:56:34.948Z,94.22
2018-04-20T00:57:35.009Z,94.60
2018-04-20T00:58:35.070Z,95.75
2018-04-20T00:59:35.129Z,95.75
2018-04-20T01:00:35.191Z,96.13
2018-04-20T01:01:35.249Z,95.65
2018-04-20T01:02:35.310Z,95.65
2018-04-20T01:03:35.370Z,95.08
2018-04-20T01:04:35.429Z,96.22
2018-04-20T01:05:35.489Z,95.65
2018-04-20T01:06:35.551Z,95.65
2018-04-20T01:07:35.613Z,96.13
2018-04-20T01:08:35.669Z,97.46
2018-04-20T01:09:35.730Z,98.90
2018-04-20T01:10:35.791Z,99.99
2018-04-20T01:11:35.849Z,99.99
2018-04-20T01:12:35.910Z,99.99
2018-04-20T01:13:35.971Z,99.99
2018-04-20T01:14:36.032Z,99.99
2018-04-20T01:15:36.090Z,99.99
2018-04-20T01:16:36.149Z,99.99
2018-04-20T01:17:36.208Z,99.99
2018-04-20T01:18:36.273Z,99.99
2018-04-20T01:19:36.330Z,99.99
2018-04-20T01:20:36.389Z,99.99
2018-04-20T01:21:36.451Z,99.99
2018-04-20T01:22:36.510Z,99.99
2018-04-20T01:23:36.570Z,99.99
2018-04-20T01:24:36.628Z,99.99
2018-04-20T01:25:36.690Z,99.99
2018-04-20T01:26:36.749Z,99.99
2018-04-20T01:27:36.810Z,99.99
2018-04-20T01:28:36.870Z,99.99
2018-04-20T01:29:36.930Z,99.99
2018-04-20T01:30:36.991Z,99.99
2018-04-20T01:31:37.049Z,99.99
2018-04-20T01:32:37.109Z,99.99
2018-04-20T01:33:37.170Z,99.99
2018-04-20T01:34:37.229Z,99.95
2018-04-20T01:35:37.289Z,99.99
2018-04-20T01:36:37.348Z,99.99
2018-04-20T01:37:37.408Z,99.99
2018-04-20T01:38:37.469Z,99.99
2018-04-20T01:39:37.528Z,99.99
2018-04-20T01:40:37.587Z,98.03
2018-04-20T01:41:37.647Z,97.27
2018-04-20T01:42:37.709Z,97.27
2018-04-20T01:43:56.975Z,98.22
2018-04-20T01:44:37.827Z,97.85
2018-04-20T01:45:37.888Z,96.89
2018-04-20T01:46:37.949Z,97.17
2018-04-20T01:47:38.008Z,97.94
2018-04-20T01:48:38.067Z,99.08
2018-04-20T01:49:38.127Z,99.75
2018-04-20T01:50:38.188Z,99.99
2018-04-20T01:51:38.246Z,99.99
2018-04-20T01:52:38.306Z,99.99
2018-04-20T01:53:38.366Z,99.99
2018-04-20T01:54:38.425Z,99.99
2018-04-20T01:55:38.519Z,99.99
2018-04-20T01:56:38.544Z,99.99
2018-04-20T01:57:38.605Z,99.99
2018-04-20T01:58:38.665Z,99.99
2018-04-20T01:59:38.724Z,99.32
2018-04-20T02:00:38.784Z,99.99
2018-04-20T02:01:38.844Z,99.99
2018-04-20T02:02:38.904Z,99.99
2018-04-20T02:03:38.964Z,99.99
2018-04-20T02:04:39.027Z,98.94
2018-04-20T02:05:39.084Z,98.65
2018-04-20T02:06:39.144Z,98.27
2018-04-20T02:07:39.204Z,98.75
2018-04-20T02:08:39.262Z,99.22
2018-04-20T02:09:39.323Z,99.99
2018-04-20T02:10:39.386Z,99.99
2018-04-20T02:11:39.443Z,99.99
2018-04-20T02:12:39.502Z,99.89
2018-04-20T02:13:39.562Z,99.99
2018-04-20T02:14:39.623Z,99.99
2018-04-20T02:15:39.682Z,99.99
2018-04-20T02:16:39.740Z,99.99
2018-04-20T02:17:39.800Z,99.99
2018-04-20T02:18:39.860Z,99.99
2018-04-20T02:19:39.926Z,99.99
2018-04-20T02:20:39.981Z,99.99
2018-04-20T02:21:40.045Z,99.99
2018-04-20T02:22:40.099Z,99.99
2018-04-20T02:23:40.159Z,99.99
2018-04-20T02:24:40.217Z,99.99
2018-04-20T02:25:40.278Z,99.99
2018-04-20T02:26:40.339Z,99.84
2018-04-20T02:27:40.396Z,99.99
2018-04-20T02:28:40.456Z,99.99
2018-04-20T02:29:40.518Z,99.55
2018-04-20T02:30:40.575Z,99.27
2018-04-20T02:31:40.635Z,99.99
2018-04-20T02:32:40.695Z,99.99
2018-04-20T02:33:40.754Z,99.99
2018-04-20T02:34:40.815Z,99.99
2018-04-20T02:35:40.873Z,99.99
2018-04-20T02:36:40.932Z,99.99
2018-04-20T02:37:40.992Z,99.99
2018-04-20T02:38:41.052Z,99.99
2018-04-20T02:39:41.110Z,99.99
2018-04-20T02:40:41.170Z,99.99
2018-04-20T02:41:41.229Z,99.99
2018-04-20T02:42:41.291Z,99.99
2018-04-20T02:43:41.349Z,99.99
2018-04-20T02:44:41.411Z,99.99
2018-04-20T02:45:41.468Z,99.84
2018-04-20T02:46:41.529Z,99.99
2018-04-20T02:47:41.588Z,99.75
2018-04-20T02:48:41.645Z,98.89
2018-04-20T02:49:41.706Z,99.18
2018-04-20T02:50:41.765Z,99.46
2018-04-20T02:51:41.826Z,99.75
2018-04-20T02:52:41.888Z,99.94
2018-04-20T02:53:41.944Z,99.65
2018-04-20T02:54:42.002Z,99.99
2018-04-20T02:55:42.078Z,99.55
2018-04-20T02:56:42.122Z,98.99
2018-04-20T02:57:42.182Z,99.99
2018-04-20T02:58:42.242Z,99.99
2018-04-20T02:59:42.300Z,99.99
2018-04-20T03:00:42.363Z,99.99
2018-04-20T03:01:42.418Z,99.99
2018-04-20T03:02:42.476Z,99.99
2018-04-20T03:03:42.537Z,99.99
2018-04-20T03:04:42.601Z,99.99
2018-04-20T03:05:42.654Z,99.99
2018-04-20T03:06:42.715Z,99.99
2018-04-20T03:07:42.777Z,99.99
2018-04-20T03:08:42.837Z,99.99
2018-04-20T03:09:42.893Z,99.99
2018-04-20T03:10:42.950Z,99.99
2018-04-20T03:11:43.009Z,99.99
2018-04-20T03:12:43.067Z,99.99
2018-04-20T03:13:43.126Z,99.99
2018-04-20T03:14:43.186Z,99.99
2018-04-20T03:15:43.245Z,99.99
2018-04-20T03:16:43.306Z,99.99
2018-04-20T03:17:43.364Z,99.99
2018-04-20T03:18:43.422Z,99.99
2018-04-20T03:19:43.483Z,99.99
2018-04-20T03:20:43.542Z,99.99
2018-04-20T03:21:43.601Z,99.99
2018-04-20T03:22:43.659Z,99.99
2018-04-20T03:23:43.719Z,99.99
2018-04-20T03:24:43.779Z,99.99
2018-04-20T03:25:43.837Z,99.99
2018-04-20T03:26:43.897Z,99.99
2018-04-20T03:27:43.957Z,99.99
2018-04-20T03:28:44.015Z,99.99
2018-04-20T03:29:44.073Z,99.99
2018-04-20T03:30:44.135Z,99.99
2018-04-20T03:31:44.194Z,99.99
2018-04-20T03:32:44.251Z,99.99
2018-04-20T03:33:44.314Z,99.99
2018-04-20T03:34:44.368Z,99.99
2018-04-20T03:35:44.428Z,99.99
2018-04-20T03:36:44.487Z,99.99
2018-04-20T03:37:44.796Z,99.99
2018-04-20T03:38:44.606Z,99.99
2018-04-20T03:39:44.665Z,99.99
2018-04-20T03:40:44.725Z,99.99
2018-04-20T03:41:44.782Z,99.99
2018-04-20T03:42:44.843Z,99.99
2018-04-20T03:43:44.904Z,99.99
2018-04-20T03:44:44.960Z,99.99
2018-04-20T03:45:45.020Z,99.99
2018-04-20T03:46:45.081Z,99.99
2018-04-20T03:47:45.137Z,99.99
2018-04-20T03:48:45.196Z,99.99
2018-04-20T03:49:45.256Z,99.99
2018-04-20T03:50:45.315Z,99.99
2018-04-20T03:51:45.373Z,99.99
2018-04-20T03:52:45.433Z,99.99
2018-04-20T03:53:45.494Z,99.99
2018-04-20T03:54:45.551Z,99.99
2018-04-20T03:55:45.611Z,99.99
2018-04-20T03:56:45.666Z,99.99
2018-04-20T03:57:45.730Z,99.99
2018-04-20T03:58:45.786Z,99.99
2018-04-20T03:59:45.846Z,99.99
2018-04-20T04:00:45.959Z,99.99
2018-04-20T04:01:45.963Z,99.99
2018-04-20T04:02:46.023Z,99.99
2018-04-20T04:03:46.081Z,99.99
2018-04-20T04:04:46.139Z,99.99
2018-04-20T04:05:46.199Z,99.99
2018-04-20T04:06:46.257Z,99.99
2018-04-20T04:07:46.318Z,99.99
2018-04-20T04:08:46.375Z,99.99
2018-04-20T04:09:46.434Z,99.99
2018-04-20T04:10:46.522Z,99.99
2018-04-20T04:11:46.550Z,99.99
2018-04-20T04:12:46.610Z,99.99
2018-04-20T04:13:46.669Z,99.99
2018-04-20T04:14:46.728Z,99.99
2018-04-20T04:15:46.788Z,99.99
2018-04-20T04:16:46.845Z,99.99
2018-04-20T04:17:46.904Z,99.99
2018-04-20T04:18:46.963Z,99.99
2018-04-20T04:19:47.024Z,99.99
2018-04-20T04:20:47.086Z,99.99
2018-04-20T04:21:47.505Z,99.99
2018-04-20T04:22:47.239Z,99.99
2018-04-20T04:23:47.261Z,99.99
2018-04-20T04:24:47.316Z,99.99
2018-04-20T04:25:47.374Z,99.99
2018-04-20T04:26:47.432Z,99.99
2018-04-20T04:27:47.494Z,99.99
2018-04-20T04:28:47.550Z,99.99
2018-04-20T04:29:47.612Z,99.99
2018-04-20T04:30:47.668Z,99.99
2018-04-20T04:31:47.726Z,99.99
2018-04-20T04:32:47.785Z,99.99
2018-04-20T04:33:47.843Z,99.99
2018-04-20T04:34:47.902Z,99.99
2018-04-20T04:35:47.988Z,99.99
2018-04-20T04:36:48.019Z,99.99
2018-04-20T04:37:48.078Z,99.99
2018-04-20T04:38:48.137Z,99.99
2018-04-20T04:39:48.196Z,99.99
2018-04-20T04:40:48.252Z,99.99
2018-04-20T04:41:48.313Z,99.99
2018-04-20T04:42:48.371Z,99.99
2018-04-20T04:43:48.430Z,99.99
2018-04-20T04:44:48.488Z,99.99
2018-04-20T04:45:48.547Z,99.99
2018-04-20T04:46:48.605Z,99.99
2018-04-20T04:47:48.665Z,99.99
2018-04-20T04:48:48.723Z,99.99
2018-04-20T04:49:48.780Z,99.99
2018-04-20T04:50:48.841Z,99.99
2018-04-20T04:51:49.247Z,99.99
2018-04-20T04:52:48.964Z,99.99
2018-04-20T04:53:49.015Z,99.99
2018-04-20T04:54:49.075Z,99.99
2018-04-20T04:55:49.132Z,99.99
2018-04-20T04:56:50.038Z,99.99
2018-04-20T04:57:49.249Z,99.99
2018-04-20T04:58:49.307Z,99.99
2018-04-20T04:59:49.371Z,99.99
2018-04-20T05:00:49.425Z,99.99
2018-04-20T05:01:49.521Z,99.99
2018-04-20T05:02:49.546Z,99.99
2018-04-20T05:03:49.743Z,99.99
2018-04-20T05:04:49.661Z,99.99
2018-04-20T05:05:49.719Z,99.99
2018-04-20T05:06:49.779Z,99.99
2018-04-20T05:07:49.837Z,99.99
2018-04-20T05:08:49.894Z,99.99
2018-04-20T05:09:49.955Z,99.99
2018-04-20T05:10:50.658Z,99.99
2018-04-20T05:11:50.073Z,99.99
2018-04-20T05:12:50.131Z,99.99
2018-04-20T05:13:50.189Z,99.99
2018-04-20T05:14:50.249Z,99.99
2018-04-20T05:15:50.307Z,99.99
2018-04-20T05:16:50.365Z,99.99
2018-04-20T05:17:50.425Z,99.99
2018-04-20T05:18:50.484Z,99.99
2018-04-20T05:19:50.616Z,99.99
2018-04-20T05:20:50.601Z,99.99
2018-04-20T05:21:50.678Z,99.99
2018-04-20T05:22:50.766Z,99.99
2018-04-20T05:23:50.778Z,99.99
2018-04-20T05:24:51.151Z,99.99
2018-04-20T05:25:50.896Z,99.99
2018-04-20T05:26:50.962Z,99.99
2018-04-20T05:27:51.012Z,99.99
2018-04-20T05:28:51.071Z,99.99
2018-04-20T05:29:51.284Z,99.99
2018-04-20T05:30:51.190Z,99.99
2018-04-20T05:31:51.249Z,99.99
2018-04-20T05:32:51.344Z,99.99
2018-04-20T05:33:51.367Z,99.99
2018-04-20T05:34:51.426Z,99.99
2018-04-20T05:35:51.484Z,99.99
2018-04-20T05:36:51.543Z,99.99
2018-04-20T05:37:51.602Z,99.99
2018-04-20T05:38:51.662Z,99.99
2018-04-20T05:39:51.723Z,99.99
2018-04-20T05:40:51.779Z,99.99
2018-04-20T05:41:51.839Z,99.99
2018-04-20T05:42:51.897Z,99.99
2018-04-20T05:43:51.963Z,99.99
2018-04-20T05:44:52.017Z,99.99
2018-04-20T05:45:52.076Z,99.99
2018-04-20T05:46:52.135Z,99.99
2018-04-20T05:47:52.195Z,99.99
2018-04-20T05:48:52.253Z,99.99
2018-04-20T05:49:52.311Z,99.99
2018-04-20T05:50:52.375Z,99.99
2018-04-20T05:51:52.430Z,99.99
2018-04-20T05:52:52.489Z,99.99
2018-04-20T05:53:52.548Z,99.99
2018-04-20T05:54:52.609Z,99.99
2018-04-20T05:55:52.667Z,99.99
2018-04-20T05:56:52.734Z,99.99
2018-04-20T05:57:52.786Z,99.99
2018-04-20T05:58:52.846Z,99.99
2018-04-20T05:59:52.935Z,99.99
2018-04-20T06:00:52.963Z,99.99
2018-04-20T06:01:53.027Z,99.99
2018-04-20T06:02:53.083Z,99.99
2018-04-20T06:03:53.142Z,99.99
2018-04-20T06:04:53.201Z,99.99
2018-04-20T06:05:53.260Z,99.99
2018-04-20T06:06:53.321Z,99.99
2018-04-20T06:07:53.380Z,99.99
2018-04-20T06:08:53.440Z,99.99
2018-04-20T06:09:53.499Z,99.99
2018-04-20T06:10:53.955Z,99.99
2018-04-20T06:11:53.622Z,99.99
2018-04-20T06:12:53.677Z,99.99
2018-04-20T06:13:53.740Z,99.99
2018-04-20T06:14:53.805Z,99.99
2018-04-20T06:15:53.857Z,99.99
2018-04-20T06:16:53.916Z,99.99
2018-04-20T06:17:53.977Z,99.99
2018-04-20T06:18:54.036Z,99.99
2018-04-20T06:19:54.697Z,99.99
2018-04-20T06:20:54.155Z,99.99
2018-04-20T06:21:54.217Z,99.99
2018-04-20T06:22:54.275Z,99.99
2018-04-20T06:23:54.336Z,99.99
2018-04-20T06:24:54.397Z,99.99
2018-04-20T06:25:54.455Z,99.99
2018-04-20T06:26:54.513Z,99.99
2018-04-20T06:27:54.573Z,99.99
2018-04-20T06:28:54.633Z,99.95
2018-04-20T06:29:54.694Z,99.85
2018-04-20T06:30:54.754Z,99.66
2018-04-20T06:31:54.818Z,99.52
2018-04-20T06:32:54.935Z,99.23
2018-04-20T06:33:54.934Z,99.18
2018-04-20T06:34:54.995Z,99.13
2018-04-20T06:35:55.056Z,99.04
2018-04-20T06:36:55.120Z,99.18
2018-04-20T06:37:55.176Z,98.85
2018-04-20T06:38:55.235Z,98.37
2018-04-20T06:39:55.296Z,98.47
2018-04-20T06:40:55.356Z,98.08
2018-04-20T06:41:55.419Z,98.27
2018-04-20T06:42:55.478Z,98.18
2018-04-20T06:43:55.688Z,97.80
2018-04-20T06:44:55.599Z,97.51
2018-04-20T06:45:55.658Z,97.32
2018-04-20T06:46:55.718Z,97.80
2018-04-20T06:47:55.780Z,97.37
2018-04-20T06:48:55.839Z,96.61
2018-04-20T06:49:55.900Z,97.08
2018-04-20T06:50:55.960Z,96.70
2018-04-20T06:51:56.022Z,96.61
2018-04-20T06:52:56.081Z,96.80
2018-04-20T06:53:56.150Z,96.42
2018-04-20T06:54:56.203Z,96.22
2018-04-20T06:55:56.264Z,95.65
2018-04-20T06:56:56.344Z,95.84
2018-04-20T06:57:56.385Z,95.61
2018-04-20T06:58:56.444Z,95.41
2018-04-20T06:59:56.507Z,94.55
2018-04-20T07:00:56.579Z,94.36
2018-04-20T07:01:56.628Z,94.17
2018-04-20T07:02:56.687Z,93.50
2018-04-20T07:03:56.750Z,93.60
2018-04-20T07:04:56.813Z,94.07
2018-04-20T07:05:56.872Z,93.60
2018-04-20T07:06:56.933Z,93.60
2018-04-20T07:07:56.996Z,93.02
2018-04-20T07:08:57.053Z,92.88
2018-04-20T07:09:57.116Z,92.40
2018-04-20T07:10:57.175Z,91.93
2018-04-20T07:11:57.267Z,91.83
2018-04-20T07:12:57.299Z,91.25
2018-04-20T07:13:57.359Z,90.97
2018-04-20T07:14:57.422Z,90.59
2018-04-20T07:15:57.487Z,90.11
2018-04-20T07:16:57.545Z,89.82
2018-04-20T07:17:57.604Z,89.73
2018-04-20T07:18:57.666Z,90.01
2018-04-20T07:19:57.726Z,89.15
2018-04-20T07:20:57.789Z,89.53
2018-04-20T07:21:57.849Z,89.34
2018-04-20T07:22:57.911Z,88.62
2018-04-20T07:23:58.223Z,87.86
2018-04-20T07:24:58.034Z,88.15
2018-04-20T07:25:58.100Z,88.24
2018-04-20T07:26:58.157Z,87.48
2018-04-20T07:27:58.218Z,87.66
2018-04-20T07:28:58.279Z,87.66
2018-04-20T07:29:58.373Z,87.00
2018-04-20T07:30:58.403Z,85.94
2018-04-20T07:31:58.465Z,86.23
2018-04-20T07:32:58.526Z,85.22
2018-04-20T07:33:58.587Z,84.52
2018-04-20T07:34:58.649Z,84.84
2018-04-20T07:35:58.712Z,84.94
2018-04-20T07:36:58.772Z,84.36
2018-04-20T07:37:58.836Z,84.08
2018-04-20T07:38:58.897Z,84.36
2018-04-20T07:39:58.964Z,84.08
2018-04-20T07:40:59.020Z,83.50
2018-04-20T07:41:59.085Z,83.73
2018-04-20T07:42:59.144Z,82.97
2018-04-20T07:43:59.206Z,82.20
2018-04-20T07:44:59.268Z,82.01
2018-04-20T07:45:59.648Z,81.92
2018-04-20T07:46:59.390Z,81.92
2018-04-20T07:47:59.454Z,81.05
2018-04-20T07:48:59.514Z,80.58
2018-04-20T07:49:59.579Z,80.77
2018-04-20T07:50:59.644Z,80.43
2018-04-20T07:51:59.702Z,81.15
2018-04-20T07:52:59.762Z,81.48
2018-04-20T07:53:59.825Z,80.90
2018-04-20T07:54:59.887Z,81.10
2018-04-20T07:55:59.950Z,81.38
2018-04-20T07:57:00.013Z,81.10
2018-04-20T07:58:00.075Z,81.48
2018-04-20T07:59:00.137Z,81.20
2018-04-20T08:00:00.200Z,81.38
2018-04-20T08:01:00.266Z,80.81
2018-04-20T08:02:00.325Z,81.10
2018-04-20T08:03:00.388Z,80.76
2018-04-20T08:04:00.604Z,80.85
2018-04-20T08:05:00.512Z,80.08
2018-04-20T08:06:00.574Z,79.99
2018-04-20T08:07:00.638Z,78.36
2018-04-20T08:08:00.700Z,78.55
2018-04-20T08:09:00.762Z,78.20
2018-04-20T08:10:00.824Z,78.30
2018-04-20T08:11:00.891Z,77.73
2018-04-20T08:12:00.950Z,77.53
2018-04-20T08:13:01.015Z,77.06
2018-04-20T08:14:01.074Z,77.25
2018-04-20T08:15:01.139Z,77.92
2018-04-20T08:16:01.555Z,78.02
2018-04-20T08:17:01.264Z,78.49
2018-04-20T08:18:01.326Z,78.30
2018-04-20T08:19:01.390Z,78.15
2018-04-20T08:20:01.510Z,77.38
2018-04-20T08:21:01.515Z,78.25
2018-04-20T08:22:01.888Z,77.95
2018-04-20T08:23:01.645Z,78.15
2018-04-20T08:24:01.704Z,77.71
2018-04-20T08:25:01.767Z,77.71
2018-04-20T08:26:01.830Z,76.65
2018-04-20T08:27:01.912Z,76.56
2018-04-20T08:28:02.335Z,76.75
2018-04-20T08:29:02.062Z,76.75
2018-04-20T08:30:02.087Z,75.92
2018-04-20T08:31:02.147Z,76.12
2018-04-20T08:32:02.211Z,75.63
2018-04-20T08:33:02.283Z,75.06
2018-04-20T08:34:02.336Z,74.87
2018-04-20T08:35:02.399Z,75.00
2018-04-20T08:36:02.523Z,74.13
2018-04-20T08:37:02.526Z,73.66
2018-04-20T08:38:02.590Z,72.99
2018-04-20T08:39:02.671Z,72.79
2018-04-20T08:40:02.716Z,72.12
2018-04-20T08:41:02.781Z,71.96
2018-04-20T08:42:02.928Z,71.48
2018-04-20T08:43:02.907Z,69.75
2018-04-20T08:44:02.970Z,70.43
2018-04-20T08:45:03.038Z,69.85
2018-04-20T08:46:03.099Z,68.89
2018-04-20T08:47:03.162Z,68.89
2018-04-20T08:48:03.228Z,69.46
2018-04-20T08:49:03.295Z,69.40
2018-04-20T08:50:03.353Z,69.79
2018-04-20T08:51:03.418Z,68.73
2018-04-20T08:52:03.484Z,68.15
2018-04-20T08:53:03.545Z,68.06
2018-04-20T08:54:03.610Z,67.29
2018-04-20T08:55:03.674Z,66.91
2018-04-20T08:56:04.061Z,66.65
2018-04-20T08:57:03.868Z,66.07
2018-04-20T08:58:03.867Z,65.40
2018-04-20T08:59:03.931Z,64.63
2018-04-20T09:00:03.996Z,64.18
2018-04-20T09:01:04.058Z,63.60
2018-04-20T09:02:04.126Z,64.18
2018-04-20T09:03:04.188Z,63.22
2018-04-20T09:04:04.266Z,63.12
2018-04-20T09:05:04.317Z,62.54
2018-04-20T09:06:04.381Z,62.83
2018-04-20T09:07:04.448Z,63.12
2018-04-20T09:08:04.511Z,63.25
2018-04-20T09:09:04.574Z,62.96
2018-04-20T09:10:04.640Z,62.87
2018-04-20T09:11:04.705Z,61.71
2018-04-20T09:12:04.793Z,62.09
2018-04-20T09:13:04.834Z,61.13
2018-04-20T09:14:04.898Z,61.25
2018-04-20T09:15:04.964Z,61.07
2018-04-20T09:16:05.028Z,61.25
2018-04-20T09:17:05.244Z,60.77
2018-04-20T09:18:05.161Z,61.25
2018-04-20T09:19:05.233Z,62.73
2018-04-20T09:20:05.289Z,62.93
2018-04-20T09:21:05.353Z,62.96
2018-04-20T09:22:05.420Z,62.09
2018-04-20T09:23:05.483Z,61.90
2018-04-20T09:24:05.557Z,61.13
2018-04-20T09:25:05.613Z,60.64
2018-04-20T09:26:05.679Z,59.97
2018-04-20T09:27:05.746Z,59.00
2018-04-20T09:28:05.812Z,59.61
2018-04-20T09:29:05.875Z,58.84
2018-04-20T09:30:05.945Z,59.00
2018-04-20T09:31:06.008Z,58.45
2018-04-20T09:32:06.073Z,57.97
2018-04-20T09:33:06.140Z,57.78
2018-04-20T09:34:06.204Z,56.62
2018-04-20T09:35:06.521Z,56.04
2018-04-20T09:36:06.341Z,55.56
2018-04-20T09:37:06.401Z,55.85
2018-04-20T09:38:06.467Z,53.92
2018-04-20T09:39:06.537Z,53.08
2018-04-20T09:40:06.605Z,54.05
2018-04-20T09:41:06.664Z,53.95
2018-04-20T09:42:07.043Z,53.39
2018-04-20T09:43:06.797Z,53.30
2018-04-20T09:44:06.862Z,51.07
2018-04-20T09:45:06.928Z,51.68
2018-04-20T09:46:06.993Z,50.62
2018-04-20T09:47:07.061Z,49.37
2018-04-20T09:48:07.131Z,49.75
2018-04-20T09:49:07.195Z,49.37
2018-04-20T09:50:07.258Z,48.69
2018-04-20T09:51:07.325Z,47.43
2018-04-20T09:52:07.392Z,47.07
2018-04-20T09:53:07.462Z,46.78
2018-04-20T09:54:07.525Z,45.74
2018-04-20T09:55:07.592Z,45.54
2018-04-20T09:56:07.661Z,44.38
2018-04-20T09:57:07.875Z,44.31
2018-04-20T09:58:07.795Z,43.54
2018-04-20T09:59:07.858Z,43.24
2018-04-20T10:00:07.925Z,43.15
2018-04-20T10:01:07.991Z,43.17
2018-04-20T10:02:08.058Z,43.65
2018-04-20T10:03:08.125Z,42.68
2018-04-20T10:04:08.200Z,42.97
2018-04-20T10:05:08.257Z,42.68
2018-04-20T10:06:08.326Z,42.88
2018-04-20T10:07:08.392Z,42.78
2018-04-20T10:08:08.461Z,42.97
2018-04-20T10:09:08.527Z,42.61
2018-04-20T10:10:08.598Z,42.32
2018-04-20T10:11:08.663Z,42.41
2018-04-20T10:12:08.734Z,42.44
2018-04-20T10:13:08.801Z,42.54
2018-04-20T10:14:08.867Z,42.36
2018-04-20T10:15:08.931Z,42.55
2018-04-20T10:16:09.000Z,42.17
2018-04-20T10:17:09.070Z,41.66
2018-04-20T10:18:09.135Z,42.07
2018-04-20T10:19:09.209Z,41.49
2018-04-20T10:20:09.272Z,42.07
2018-04-20T10:21:09.339Z,41.68
2018-04-20T10:22:09.407Z,40.34
2018-04-20T10:23:09.479Z,40.34
2018-04-20T10:24:09.552Z,40.44
2018-04-20T10:25:09.611Z,40.44
2018-04-20T10:26:09.681Z,40.44
2018-04-20T10:27:09.749Z,40.75
2018-04-20T10:28:09.818Z,39.78
2018-04-20T10:29:09.885Z,39.11
2018-04-20T10:30:09.954Z,39.51
2018-04-20T10:31:10.025Z,38.44
2018-04-20T10:32:10.094Z,38.56
2018-04-20T10:33:10.210Z,38.75
2018-04-20T10:34:10.233Z,38.27
2018-04-20T10:35:10.304Z,37.22
2018-04-20T10:36:10.374Z,37.22
2018-04-20T10:37:10.445Z,35.29
2018-04-20T10:38:10.516Z,34.32
2018-04-20T10:39:10.589Z,32.87
2018-04-20T10:40:10.661Z,31.53
2018-04-20T10:41:10.731Z,30.38
2018-04-20T10:42:10.955Z,30.47
2018-04-20T10:43:10.876Z,29.24
2018-04-20T10:44:10.985Z,28.19
2018-04-20T10:45:11.027Z,27.25
2018-04-20T10:46:11.099Z,26.15
2018-04-20T10:47:11.170Z,25.36
2018-04-20T10:48:11.248Z,26.82
2018-04-20T10:49:11.319Z,25.76
2018-04-20T10:50:11.394Z,25.56
2018-04-20T10:51:11.469Z,25.65
2018-04-20T10:52:11.544Z,23.80
2018-04-20T10:53:11.618Z,23.25
2018-04-20T10:54:11.700Z,23.26
2018-04-20T10:55:11.820Z,22.28
2018-04-20T10:56:11.851Z,22.66
2018-04-20T10:57:11.923Z,22.46
2018-04-20T10:58:12.148Z,23.51
2018-04-20T10:59:12.074Z,23.33
2018-04-20T11:00:12.151Z,23.54
2018-04-20T11:01:12.226Z,22.47
2018-04-20T11:02:12.303Z,21.50
2018-04-20T11:03:12.381Z,21.03
2018-04-20T11:04:12.457Z,21.21
2018-04-20T11:05:12.534Z,21.23
2018-04-20T11:06:12.611Z,20.25
2018-04-20T11:07:12.688Z,20.85
2018-04-20T11:08:12.766Z,19.70
2018-04-20T11:09:12.843Z,19.49
2018-04-20T11:10:12.921Z,21.04
2018-04-20T11:11:13.006Z,21.62
2018-04-20T11:12:13.076Z,21.81
2018-04-20T11:13:13.153Z,21.34
2018-04-20T11:14:13.231Z,21.06
2018-04-20T11:15:13.309Z,21.13
2018-04-20T11:16:13.388Z,21.51
2018-04-20T11:17:13.468Z,21.41
2018-04-20T11:18:13.545Z,21.13
2018-04-20T11:19:13.622Z,21.44
2018-04-20T11:20:13.699Z,20.56
2018-04-20T11:21:13.776Z,21.04
2018-04-20T11:22:14.106Z,20.85
2018-04-20T11:23:13.933Z,20.27
2018-04-20T11:24:14.013Z,21.15
2018-04-20T11:25:14.091Z,19.78
2018-04-20T11:26:14.168Z,19.98
2018-04-20T11:27:14.248Z,19.31
2018-04-20T11:28:14.330Z,19.20
2018-04-20T11:29:14.445Z,19.89
2018-04-20T11:30:14.482Z,19.32
2018-04-20T11:31:14.560Z,19.13
2018-04-20T11:32:14.640Z,18.94
2018-04-20T11:33:14.717Z,18.74
2018-04-20T11:34:14.796Z,18.54
2018-04-20T11:35:14.874Z,17.86
2018-04-20T11:36:14.952Z,17.86
2018-04-20T11:37:15.032Z,17.77
2018-04-20T11:38:15.109Z,17.27
2018-04-20T11:39:15.193Z,17.48
2018-04-20T11:40:15.267Z,17.19
2018-04-20T11:41:15.346Z,16.78
2018-04-20T11:42:15.427Z,17.47
2018-04-20T11:43:15.505Z,16.90
2018-04-20T11:44:18.849Z,16.02
2018-04-20T11:45:15.663Z,15.63
2018-04-20T11:46:15.740Z,15.54
2018-04-20T11:47:15.819Z,15.63
2018-04-20T11:48:15.900Z,15.23
2018-04-20T11:49:16.001Z,15.91
2018-04-20T11:50:16.059Z,16.96
2018-04-20T11:51:16.141Z,17.62
2018-04-20T11:52:16.217Z,18.02
2018-04-20T11:53:16.297Z,18.13
2018-04-20T11:54:16.375Z,17.65
2018-04-20T11:55:16.462Z,17.29
2018-04-20T11:56:16.540Z,16.71
2018-04-20T11:57:16.613Z,16.02
2018-04-20T11:59:16.771Z,17.36
2018-04-20T12:00:17.000Z,18.04
2018-04-20T12:01:16.929Z,18.03
2018-04-20T12:02:17.026Z,17.56
2018-04-20T12:03:17.087Z,17.65
2018-04-20T12:04:17.167Z,17.93
2018-04-20T12:05:17.243Z,18.50
2018-04-20T12:06:17.377Z,18.89
2018-04-20T12:07:17.403Z,19.27
2018-04-20T12:08:17.481Z,19.10
2018-04-20T12:09:17.558Z,18.54
2018-04-20T12:10:17.642Z,18.13
2018-04-20T12:11:17.717Z,18.41
2018-04-20T12:12:17.796Z,18.89
2018-04-20T12:13:17.874Z,19.29
2018-04-20T12:14:17.966Z,18.15
2018-04-20T12:15:18.033Z,17.75
2018-04-20T12:16:18.111Z,17.27
2018-04-20T12:17:18.190Z,17.38
2018-04-20T12:18:18.421Z,17.46
2018-04-20T12:19:18.347Z,17.66
2018-04-20T12:20:18.427Z,18.13
2018-04-20T12:21:18.522Z,18.62
2018-04-20T12:22:18.588Z,18.54
2018-04-20T12:23:18.663Z,17.56
2018-04-20T12:24:18.740Z,17.85
2018-04-20T12:25:19.274Z,17.85
2018-04-20T12:26:18.898Z,18.52
2018-04-20T12:27:18.986Z,18.34
2018-04-20T12:28:19.057Z,18.15
2018-04-20T12:29:19.134Z,17.86
2018-04-20T12:30:19.213Z,17.65
2018-04-20T12:31:19.291Z,17.55
2018-04-20T12:32:19.371Z,17.47
2018-04-20T12:33:19.448Z,17.66
2018-04-20T12:34:19.528Z,17.08
2018-04-20T12:35:19.757Z,17.27
2018-04-20T12:36:19.689Z,17.47
2018-04-20T12:37:19.764Z,16.99
2018-04-20T12:38:19.841Z,17.09
2018-04-20T12:39:19.921Z,17.96
2018-04-20T12:40:19.998Z,17.56
2018-04-20T12:41:20.109Z,17.66
2018-04-20T12:42:20.156Z,17.77
2018-04-20T12:43:20.236Z,17.58
2018-04-20T12:44:20.371Z,17.38
2018-04-20T12:45:20.390Z,17.38
2018-04-20T12:46:20.621Z,17.09
2018-04-20T12:47:20.548Z,16.58
2018-04-20T12:48:20.633Z,16.89
2018-04-20T12:49:20.707Z,16.21
2018-04-20T12:50:20.786Z,16.03
2018-04-20T12:51:20.927Z,15.93
2018-04-20T12:52:20.943Z,16.80
2018-04-20T12:53:21.022Z,16.49
2018-04-20T12:54:21.100Z,16.71